createdAt,value
2023-04-15T00:34:44.374Z,9.247126
2023-04-15T00:35:44.389Z,9.247128
2023-04-15T00:36:44.388Z,9.247117
2023-04-15T00:37:46.044Z,9.247119
2023-04-15T00:38:45.336Z,9.247121
2023-04-15T00:39:44.331Z,9.247173
2023-04-15T00:40:44.348Z,9.247175
2023-04-15T00:41:44.331Z,9.247143
2023-04-15T00:42:44.352Z,9.247121
2023-04-15T00:43:44.358Z,9.247112
2023-04-15T00:44:44.295Z,9.247077
2023-04-15T00:45:44.342Z,9.247090
2023-04-15T00:46:45.293Z,9.247357
2023-04-15T00:47:44.298Z,9.247460
2023-04-15T00:48:44.270Z,9.247245
2023-04-15T00:49:44.277Z,9.247118
2023-04-15T00:50:44.249Z,9.247127
2023-04-15T00:51:44.316Z,9.247127
2023-04-15T00:52:44.259Z,9.247096
2023-04-15T00:53:44.234Z,9.247134
2023-04-15T00:54:44.271Z,9.247156
2023-04-15T00:55:44.234Z,9.247207
2023-04-15T00:56:44.247Z,9.247244
2023-04-15T00:57:44.198Z,9.247152
2023-04-15T00:58:44.224Z,9.247170
2023-04-15T00:59:44.200Z,9.247160
2023-04-15T01:00:44.181Z,9.247161
2023-04-15T01:01:44.268Z,9.247135
2023-04-15T01:02:44.257Z,9.247133
2023-04-15T01:03:44.323Z,9.247138
2023-04-15T01:04:44.177Z,9.247051
2023-04-15T01:05:44.150Z,9.247100
2023-04-15T01:06:44.166Z,9.247133
2023-04-15T01:07:44.137Z,9.247138
2023-04-15T01:08:44.136Z,9.247193
2023-04-15T01:09:44.138Z,9.247170
2023-04-15T01:10:44.117Z,9.247108
2023-04-15T01:11:44.119Z,9.247113
2023-04-15T01:12:44.100Z,9.247141
2023-04-15T01:13:44.096Z,9.247092
2023-04-15T01:14:44.115Z,9.247074
2023-04-15T01:15:44.153Z,9.247041
2023-04-15T01:16:44.086Z,9.247099
2023-04-15T01:17:44.095Z,9.247108
2023-04-15T01:18:44.052Z,9.247130
2023-04-15T01:19:44.053Z,9.247102
2023-04-15T01:20:44.070Z,9.247089
2023-04-15T01:21:44.073Z,9.247089
2023-04-15T01:22:44.059Z,9.247081
2023-04-15T01:23:44.013Z,9.247102
2023-04-15T01:24:44.023Z,9.247077
2023-04-15T01:25:44.003Z,9.247114
2023-04-15T01:26:44.699Z,9.247033
2023-04-15T01:27:45.044Z,9.247080
2023-04-15T01:28:44.008Z,9.247071
2023-04-15T01:29:43.999Z,9.247127
2023-04-15T01:30:43.965Z,9.247033
2023-04-15T01:31:45.040Z,9.247047
2023-04-15T01:32:44.072Z,9.247074
2023-04-15T01:33:43.984Z,9.247024
2023-04-15T01:34:43.955Z,9.247046
2023-04-15T01:35:43.990Z,9.247060
2023-04-15T01:36:43.946Z,9.247065
2023-04-15T01:37:43.938Z,9.246968
2023-04-15T01:38:43.967Z,9.247093
2023-04-15T01:39:44.918Z,9.247051
2023-04-15T01:40:43.915Z,9.247129
2023-04-15T01:41:43.897Z,9.247061
2023-04-15T01:42:43.933Z,9.247050
2023-04-15T01:43:43.896Z,9.247091
2023-04-15T01:44:43.869Z,9.247183
2023-04-15T01:45:43.868Z,9.247064
2023-04-15T01:46:43.941Z,9.247034
2023-04-15T01:47:43.946Z,9.246983
2023-04-15T01:48:43.868Z,9.247046
2023-04-15T01:49:43.861Z,9.247033
2023-04-15T01:50:43.855Z,9.246978
2023-04-15T01:51:43.849Z,9.247034
2023-04-15T01:52:43.866Z,9.247019
2023-04-15T01:53:43.840Z,9.247030
2023-04-15T01:54:43.830Z,9.247006
2023-04-15T01:55:43.825Z,9.247018
2023-04-15T01:56:43.800Z,9.247026
2023-04-15T01:57:43.824Z,9.247060
2023-04-15T01:58:43.845Z,9.247073
2023-04-15T01:59:43.793Z,9.247106
2023-04-15T02:00:43.810Z,9.247066
2023-04-15T02:01:43.773Z,9.247076
2023-04-15T02:02:43.936Z,9.246984
2023-04-15T02:03:43.852Z,9.246987
2023-04-15T02:04:43.778Z,9.247035
2023-04-15T02:05:43.787Z,9.247066
2023-04-15T02:06:44.724Z,9.247057
2023-04-15T02:07:43.761Z,9.247055
2023-04-15T02:08:43.731Z,9.247040
2023-04-15T02:09:43.742Z,9.247092
2023-04-15T02:10:43.720Z,9.247066
2023-04-15T02:11:43.689Z,9.247087
2023-04-15T02:12:44.691Z,9.247075
2023-04-15T02:13:43.694Z,9.247081
2023-04-15T02:14:43.682Z,9.247057
2023-04-15T02:15:43.681Z,9.247046
2023-04-15T02:16:43.700Z,9.247058
2023-04-15T02:17:43.740Z,9.247028
2023-04-15T02:18:43.662Z,9.246989
2023-04-15T02:19:43.663Z,9.246964
2023-04-15T02:20:43.673Z,9.247053
2023-04-15T02:21:43.627Z,9.247093
2023-04-15T02:22:43.668Z,9.247065
2023-04-15T02:23:43.629Z,9.247073
2023-04-15T02:24:43.626Z,9.247009
2023-04-15T02:25:43.622Z,9.247029
2023-04-15T02:26:44.617Z,9.247084
2023-04-15T02:27:43.609Z,9.247107
2023-04-15T02:28:43.616Z,9.247091
2023-04-15T02:29:43.604Z,9.247086
2023-04-15T02:30:43.581Z,9.247096
2023-04-15T02:31:43.642Z,9.247108
2023-04-15T02:32:43.648Z,9.247081
2023-04-15T02:33:43.562Z,9.247056
2023-04-15T02:34:43.550Z,9.247072
2023-04-15T02:35:43.547Z,9.247066
2023-04-15T02:36:43.562Z,9.247082
2023-04-15T02:37:43.881Z,9.247060
2023-04-15T02:38:43.542Z,9.247108
2023-04-15T02:39:43.550Z,9.247106
2023-04-15T02:40:43.487Z,9.247107
2023-04-15T02:41:43.486Z,9.247076
2023-04-15T02:42:43.494Z,9.247078
2023-04-15T02:43:43.488Z,9.247072
2023-04-15T02:44:43.484Z,9.247044
2023-04-15T02:45:43.606Z,9.247011
2023-04-15T02:46:43.453Z,9.247013
2023-04-15T02:47:43.532Z,9.247077
2023-04-15T02:48:43.454Z,9.247045
2023-04-15T02:49:43.456Z,9.247024
2023-04-15T02:50:43.431Z,9.247055
2023-04-15T02:51:43.437Z,9.247107
2023-04-15T02:52:43.521Z,9.247082
2023-04-15T02:53:43.428Z,9.247071
2023-04-15T02:54:43.405Z,9.247100
2023-04-15T02:55:43.418Z,9.247083
2023-04-15T02:56:43.388Z,9.247122
2023-04-15T02:57:43.413Z,9.247078
2023-04-15T02:58:43.372Z,9.247080
2023-04-15T02:59:43.390Z,9.247081
2023-04-15T03:00:43.392Z,9.247082
2023-04-15T03:01:43.377Z,9.247057
2023-04-15T03:02:43.604Z,9.247060
2023-04-15T03:03:43.421Z,9.247040
2023-04-15T03:04:43.328Z,9.247063
2023-04-15T03:05:43.309Z,9.247083
2023-04-15T03:06:43.346Z,9.247085
2023-04-15T03:07:43.464Z,9.247077
2023-04-15T03:08:43.312Z,9.247062
2023-04-15T03:09:43.306Z,9.247064
2023-04-15T03:10:43.310Z,9.247086
2023-04-15T03:11:43.283Z,9.247064
2023-04-15T03:12:43.277Z,9.247096
2023-04-15T03:13:43.315Z,9.247046
2023-04-15T03:14:43.253Z,9.247049
2023-04-15T03:15:43.280Z,9.247054
2023-04-15T03:16:43.242Z,9.247067
2023-04-15T03:17:43.337Z,9.247065
2023-04-15T03:18:43.226Z,9.247064
2023-04-15T03:19:43.211Z,9.247031
2023-04-15T03:20:43.306Z,9.247053
2023-04-15T03:21:43.197Z,9.247035
2023-04-15T03:22:43.202Z,9.247040
2023-04-15T03:23:43.190Z,9.247094
2023-04-15T03:24:43.201Z,9.247056
2023-04-15T03:25:43.179Z,9.247040
2023-04-15T03:26:43.175Z,9.247093
2023-04-15T03:27:43.183Z,9.247087
2023-04-15T03:28:43.146Z,9.247059
2023-04-15T03:29:43.170Z,9.247043
2023-04-15T03:30:43.212Z,9.247031
2023-04-15T03:31:43.135Z,9.247064
2023-04-15T03:32:43.196Z,9.247032
2023-04-15T03:33:43.155Z,9.246991
2023-04-15T03:34:43.152Z,9.246944
2023-04-15T03:35:43.130Z,9.246990
2023-04-15T03:36:43.099Z,9.246993
2023-04-15T03:37:43.111Z,9.247009
2023-04-15T03:38:43.109Z,9.247000
2023-04-15T03:39:43.100Z,9.247042
2023-04-15T03:40:43.096Z,9.247062
2023-04-15T03:41:43.087Z,9.247036
2023-04-15T03:42:43.077Z,9.247065
2023-04-15T03:43:43.084Z,9.247076
2023-04-15T03:44:43.177Z,9.247018
2023-04-15T03:45:43.064Z,9.247061
2023-04-15T03:46:43.108Z,9.247045
2023-04-15T03:47:43.126Z,9.246960
2023-04-15T03:48:43.032Z,9.247027
2023-04-15T03:49:43.021Z,9.247064
2023-04-15T03:50:43.009Z,9.246986
2023-04-15T03:51:43.003Z,9.246961
2023-04-15T03:52:43.022Z,9.246917
2023-04-15T03:53:42.988Z,9.246903
2023-04-15T03:54:43.025Z,9.247044
2023-04-15T03:55:42.965Z,9.246886
2023-04-15T03:56:43.981Z,9.246861
2023-04-15T03:57:43.014Z,9.247001
2023-04-15T03:58:42.974Z,9.247088
2023-04-15T03:59:42.942Z,9.247031
2023-04-15T04:00:42.951Z,9.247052
2023-04-15T04:01:43.056Z,9.247045
2023-04-15T04:02:42.994Z,9.246948
2023-04-15T04:03:43.029Z,9.246943
2023-04-15T04:04:42.970Z,9.247016
2023-04-15T04:05:42.910Z,9.246984
2023-04-15T04:06:42.888Z,9.247064
2023-04-15T04:07:42.906Z,9.247086
2023-04-15T04:08:42.867Z,9.246997
2023-04-15T04:09:42.873Z,9.247028
2023-04-15T04:10:42.856Z,9.246978
2023-04-15T04:11:42.843Z,9.246862
2023-04-15T04:12:42.854Z,9.246921
2023-04-15T04:13:42.857Z,9.246971
2023-04-15T04:14:42.846Z,9.246975
2023-04-15T04:15:42.920Z,9.247035
2023-04-15T04:16:42.876Z,9.246928
2023-04-15T04:17:42.939Z,9.246878
2023-04-15T04:18:42.887Z,9.246969
2023-04-15T04:19:42.808Z,9.247018
2023-04-15T04:20:42.889Z,9.247007
2023-04-15T04:21:42.787Z,9.247029
2023-04-15T04:22:42.805Z,9.247026
2023-04-15T04:23:42.776Z,9.247029
2023-04-15T04:24:42.958Z,9.247021
2023-04-15T04:25:43.812Z,9.247060
2023-04-15T04:26:42.786Z,9.247066
2023-04-15T04:27:42.781Z,9.247059
2023-04-15T04:28:42.726Z,9.247008
2023-04-15T04:29:42.793Z,9.246985
2023-04-15T04:30:42.867Z,9.247072
2023-04-15T04:31:42.755Z,9.247027
2023-04-15T04:32:42.738Z,9.247025
2023-04-15T04:33:42.707Z,9.246951
2023-04-15T04:34:42.709Z,9.247114
2023-04-15T04:35:42.687Z,9.247078
2023-04-15T04:36:42.685Z,9.247141
2023-04-15T04:37:42.692Z,9.247120
2023-04-15T04:38:42.654Z,9.247109
2023-04-15T04:39:42.662Z,9.247060
2023-04-15T04:40:42.653Z,9.247000
2023-04-15T04:41:42.628Z,9.247003
2023-04-15T04:42:43.680Z,9.246992
2023-04-15T04:43:42.627Z,9.247038
2023-04-15T04:44:42.614Z,9.247022
2023-04-15T04:45:42.794Z,9.246995
2023-04-15T04:46:42.603Z,9.247042
2023-04-15T04:47:42.721Z,9.247023
2023-04-15T04:48:42.586Z,9.247050
2023-04-15T04:49:42.582Z,9.247040
2023-04-15T04:50:42.593Z,9.247059
2023-04-15T04:51:42.591Z,9.247064
2023-04-15T04:52:42.585Z,9.247075
2023-04-15T04:53:42.588Z,9.247038
2023-04-15T04:54:42.564Z,9.247069
2023-04-15T04:55:42.551Z,9.247134
2023-04-15T04:56:42.544Z,9.247102
2023-04-15T04:57:42.567Z,9.247074
2023-04-15T04:58:42.566Z,9.247112
2023-04-15T04:59:42.568Z,9.247053
2023-04-15T05:00:42.523Z,9.247035
2023-04-15T05:01:42.607Z,9.247046
2023-04-15T05:02:42.601Z,9.247055
2023-04-15T05:03:42.611Z,9.247103
2023-04-15T05:04:42.473Z,9.247162
2023-04-15T05:05:43.514Z,9.247017
2023-04-15T05:06:42.463Z,9.247017
2023-04-15T05:07:42.477Z,9.247054
2023-04-15T05:08:43.183Z,9.247063
2023-04-15T05:09:42.449Z,9.247094
2023-04-15T05:10:42.471Z,9.247098
2023-04-15T05:11:42.436Z,9.247073
2023-04-15T05:12:42.446Z,9.247095
2023-04-15T05:13:42.427Z,9.247077
2023-04-15T05:14:43.301Z,9.247060
2023-04-15T05:15:42.437Z,9.247068
2023-04-15T05:16:42.410Z,9.247015
2023-04-15T05:17:42.414Z,9.247049
2023-04-15T05:18:42.417Z,9.247038
2023-04-15T05:19:42.389Z,9.247036
2023-04-15T05:20:42.411Z,9.247054
2023-04-15T05:21:42.371Z,9.247058
2023-04-15T05:22:42.425Z,9.247102
2023-04-15T05:23:42.394Z,9.247082
2023-04-15T05:24:42.397Z,9.247055
2023-04-15T05:25:42.343Z,9.247063
2023-04-15T05:26:42.899Z,9.247128
2023-04-15T05:27:43.338Z,9.247104
2023-04-15T05:28:42.333Z,9.247083
2023-04-15T05:29:42.335Z,9.247098
2023-04-15T05:30:42.370Z,9.247052
2023-04-15T05:31:42.356Z,9.247062
2023-04-15T05:32:42.314Z,9.247057
2023-04-15T05:33:42.284Z,9.247100
2023-04-15T05:34:42.287Z,9.247047
2023-04-15T05:35:42.267Z,9.247144
2023-04-15T05:36:42.282Z,9.247145
2023-04-15T05:37:42.288Z,9.247097
2023-04-15T05:38:42.253Z,9.247025
2023-04-15T05:39:42.270Z,9.247012
2023-04-15T05:40:42.257Z,9.246993
2023-04-15T05:41:42.246Z,9.247081
2023-04-15T05:42:42.238Z,9.247101
2023-04-15T05:43:42.298Z,9.247085
2023-04-15T05:44:42.253Z,9.247097
2023-04-15T05:45:42.213Z,9.247106
2023-04-15T05:46:42.261Z,9.247099
2023-04-15T05:47:42.218Z,9.247101
2023-04-15T05:48:42.201Z,9.247081
2023-04-15T05:49:42.168Z,9.247001
2023-04-15T05:50:42.202Z,9.247019
2023-04-15T05:51:42.175Z,9.247058
2023-04-15T05:52:42.174Z,9.247037
2023-04-15T05:53:42.166Z,9.247080
2023-04-15T05:54:42.144Z,9.247078
2023-04-15T05:55:42.152Z,9.247041
2023-04-15T05:56:42.147Z,9.247076
2023-04-15T05:57:42.113Z,9.247074
2023-04-15T05:58:42.135Z,9.247051
2023-04-15T05:59:42.124Z,9.247049
2023-04-15T06:00:42.115Z,9.247104
2023-04-15T06:01:42.155Z,9.247052
2023-04-15T06:02:42.235Z,9.247083
2023-04-15T06:03:42.194Z,9.247073
2023-04-15T06:04:42.088Z,9.247063
2023-04-15T06:05:42.063Z,9.247071
2023-04-15T06:06:42.058Z,9.247053
2023-04-15T06:07:42.082Z,9.247026
2023-04-15T06:08:42.095Z,9.247016
2023-04-15T06:09:42.027Z,9.247026
2023-04-15T06:10:42.071Z,9.247032
2023-04-15T06:11:42.011Z,9.247033
2023-04-15T06:12:42.015Z,9.247063
2023-04-15T06:13:42.034Z,9.247080
2023-04-15T06:14:42.041Z,9.247089
2023-04-15T06:15:41.995Z,9.247065
2023-04-15T06:16:42.136Z,9.247087
2023-04-15T06:17:42.068Z,9.247050
2023-04-15T06:18:42.004Z,9.247053
2023-04-15T06:19:41.958Z,9.247064
2023-04-15T06:20:42.060Z,9.247070
2023-04-15T06:21:41.948Z,9.247086
2023-04-15T06:22:41.971Z,9.247073
2023-04-15T06:23:41.940Z,9.247078
2023-04-15T06:24:41.960Z,9.247138
2023-04-15T06:25:41.945Z,9.247049
2023-04-15T06:26:41.952Z,9.247107
2023-04-15T06:27:41.910Z,9.247048
2023-04-15T06:28:41.913Z,9.247076
2023-04-15T06:29:41.890Z,9.247109
2023-04-15T06:30:41.926Z,9.247070
2023-04-15T06:31:41.938Z,9.247070
2023-04-15T06:32:41.881Z,9.247026
2023-04-15T06:33:41.878Z,9.247046
2023-04-15T06:34:41.898Z,9.246992
2023-04-15T06:35:41.857Z,9.246993
2023-04-15T06:36:41.841Z,9.247065
2023-04-15T06:37:41.838Z,9.247046
2023-04-15T06:38:41.849Z,9.247056
2023-04-15T06:39:41.818Z,9.247032
2023-04-15T06:40:41.822Z,9.247038
2023-04-15T06:41:41.812Z,9.247067
2023-04-15T06:42:41.811Z,9.247089
2023-04-15T06:43:41.799Z,9.247103
2023-04-15T06:44:41.922Z,9.247101
2023-04-15T06:45:41.811Z,9.247116
2023-04-15T06:46:41.778Z,9.247087
2023-04-15T06:47:41.808Z,9.247055
2023-04-15T06:48:41.811Z,9.247079
2023-04-15T06:49:41.767Z,9.247071
2023-04-15T06:50:41.777Z,9.247080
2023-04-15T06:51:41.762Z,9.247075
2023-04-15T06:52:41.753Z,9.247050
2023-04-15T06:53:41.734Z,9.247036
2023-04-15T06:54:41.724Z,9.247083
2023-04-15T06:55:41.709Z,9.247052
2023-04-15T06:56:41.747Z,9.247062
2023-04-15T06:57:41.712Z,9.247066
2023-04-15T06:58:41.725Z,9.247069
2023-04-15T06:59:41.689Z,9.247089
2023-04-15T07:00:41.711Z,9.247071
2023-04-15T07:01:41.696Z,9.247055
2023-04-15T07:02:41.738Z,9.247087
2023-04-15T07:03:41.751Z,9.247150
2023-04-15T07:04:41.673Z,9.247118
2023-04-15T07:05:41.628Z,9.247079
2023-04-15T07:06:41.637Z,9.247098
2023-04-15T07:07:41.633Z,9.247070
2023-04-15T07:08:41.637Z,9.247063
2023-04-15T07:09:41.616Z,9.247102
2023-04-15T07:10:41.649Z,9.247067
2023-04-15T07:11:41.588Z,9.247060
2023-04-15T07:12:41.593Z,9.247057
2023-04-15T07:13:41.590Z,9.247073
2023-04-15T07:14:41.562Z,9.247083
2023-04-15T07:15:41.553Z,9.247143
2023-04-15T07:16:41.649Z,9.247119
2023-04-15T07:17:41.601Z,9.247121
2023-04-15T07:18:41.549Z,9.247132
2023-04-15T07:19:41.541Z,9.247153
2023-04-15T07:20:41.571Z,9.247147
2023-04-15T07:21:42.103Z,9.247145
2023-04-15T07:22:42.522Z,9.247122
2023-04-15T07:23:41.519Z,9.247096
2023-04-15T07:24:41.514Z,9.247087
2023-04-15T07:25:41.497Z,9.247107
2023-04-15T07:26:41.552Z,9.247116
2023-04-15T07:27:41.490Z,9.247121
2023-04-15T07:28:41.497Z,9.247120
2023-04-15T07:29:41.464Z,9.247128
2023-04-15T07:30:41.544Z,9.247115
2023-04-15T07:31:42.471Z,9.247126
2023-04-15T07:32:41.472Z,9.247130
2023-04-15T07:33:41.468Z,9.247149
2023-04-15T07:34:41.466Z,9.247163
2023-04-15T07:35:41.420Z,9.247174
2023-04-15T07:36:41.538Z,9.247152
2023-04-15T07:37:41.418Z,9.247129
2023-04-15T07:38:41.528Z,9.247115
2023-04-15T07:39:41.408Z,9.247082
2023-04-15T07:40:41.452Z,9.247062
2023-04-15T07:41:41.390Z,9.247108
2023-04-15T07:42:42.129Z,9.247143
2023-04-15T07:43:41.468Z,9.247206
2023-04-15T07:44:41.396Z,9.247231
2023-04-15T07:45:42.180Z,9.247153
2023-04-15T07:46:41.455Z,9.247126
2023-04-15T07:47:41.357Z,9.247097
2023-04-15T07:48:42.137Z,9.247087
2023-04-15T07:49:42.186Z,9.247082
2023-04-15T07:50:41.317Z,9.247127
2023-04-15T07:51:41.365Z,9.247130
2023-04-15T07:52:41.323Z,9.247108
2023-04-15T07:53:41.321Z,9.247171
2023-04-15T07:54:41.302Z,9.247121
2023-04-15T07:55:41.305Z,9.247131
2023-04-15T07:56:41.313Z,9.247153
2023-04-15T07:57:41.289Z,9.247102
2023-04-15T07:58:41.280Z,9.247103
2023-04-15T07:59:41.259Z,9.247117
2023-04-15T08:00:41.267Z,9.247128
2023-04-15T08:01:41.253Z,9.247094
2023-04-15T08:02:41.393Z,9.247093
2023-04-15T08:03:41.325Z,9.247128
2023-04-15T08:04:41.369Z,9.247145
2023-04-15T08:05:42.151Z,9.247134
2023-04-15T08:06:41.236Z,9.247100
2023-04-15T08:07:41.225Z,9.247090
2023-04-15T08:08:41.217Z,9.247131
2023-04-15T08:09:41.248Z,9.247097
2023-04-15T08:10:41.185Z,9.247064
2023-04-15T08:11:41.165Z,9.247069
2023-04-15T08:12:42.140Z,9.247122
2023-04-15T08:13:41.175Z,9.247113
2023-04-15T08:14:41.234Z,9.247087
2023-04-15T08:15:41.204Z,9.247153
2023-04-15T08:16:41.177Z,9.247123
2023-04-15T08:17:41.198Z,9.247063
2023-04-15T08:18:41.185Z,9.247018
2023-04-15T08:19:41.220Z,9.247098
2023-04-15T08:20:41.092Z,9.247117
2023-04-15T08:21:41.146Z,9.247110
2023-04-15T08:22:41.089Z,9.247149
2023-04-15T08:23:41.100Z,9.247137
2023-04-15T08:24:42.088Z,9.247127
2023-04-15T08:25:41.085Z,9.247174
2023-04-15T08:26:41.057Z,9.247105
2023-04-15T08:27:41.068Z,9.247151
2023-04-15T08:28:41.127Z,9.247149
2023-04-15T08:29:41.049Z,9.247106
2023-04-15T08:30:41.062Z,9.247077
2023-04-15T08:31:41.105Z,9.247067
2023-04-15T08:32:42.040Z,9.247093
2023-04-15T08:33:41.115Z,9.247077
2023-04-15T08:34:41.038Z,9.247023
2023-04-15T08:35:41.011Z,9.247027
2023-04-15T08:36:41.036Z,9.247067
2023-04-15T08:37:40.997Z,9.247050
2023-04-15T08:38:41.030Z,9.247056
2023-04-15T08:39:41.623Z,9.247117
2023-04-15T08:40:41.645Z,9.247066
2023-04-15T08:41:40.967Z,9.247075
2023-04-15T08:42:41.892Z,9.247035
2023-04-15T08:43:40.951Z,9.247108
2023-04-15T08:44:40.976Z,9.247064
2023-04-15T08:45:40.917Z,9.247035
2023-04-15T08:46:40.989Z,9.247058
2023-04-15T08:47:40.992Z,9.247055
2023-04-15T08:48:40.918Z,9.247132
2023-04-15T08:49:40.915Z,9.247054
2023-04-15T08:50:40.904Z,9.247008
2023-04-15T08:51:41.648Z,9.247151
2023-04-15T08:52:40.871Z,9.247146
2023-04-15T08:53:40.896Z,9.247066
2023-04-15T08:54:40.881Z,9.246983
2023-04-15T08:55:40.865Z,9.247036
2023-04-15T08:56:40.907Z,9.247093
2023-04-15T08:57:40.881Z,9.247089
2023-04-15T08:58:40.842Z,9.247047
2023-04-15T08:59:40.895Z,9.246993
2023-04-15T09:00:40.851Z,9.247084
2023-04-15T09:01:41.009Z,9.247099
2023-04-15T09:02:40.932Z,9.247107
2023-04-15T09:03:40.952Z,9.247107
2023-04-15T09:04:40.800Z,9.247143
2023-04-15T09:05:40.776Z,9.247130
2023-04-15T09:06:40.782Z,9.247133
2023-04-15T09:07:40.826Z,9.247140
2023-04-15T09:08:40.783Z,9.247128
2023-04-15T09:09:40.788Z,9.247128
2023-04-15T09:10:40.767Z,9.247045
2023-04-15T09:11:40.889Z,9.247032
2023-04-15T09:12:40.750Z,9.247083
2023-04-15T09:13:40.741Z,9.247061
2023-04-15T09:14:40.722Z,9.247149
2023-04-15T09:15:40.722Z,9.247106
2023-04-15T09:16:40.742Z,9.247159
2023-04-15T09:17:40.789Z,9.247169
2023-04-15T09:18:40.687Z,9.247182
2023-04-15T09:19:40.693Z,9.247124
2023-04-15T09:20:40.678Z,9.247119
2023-04-15T09:21:40.686Z,9.247130
2023-04-15T09:22:40.696Z,9.247032
2023-04-15T09:23:40.665Z,9.247067
2023-04-15T09:24:40.648Z,9.247119
2023-04-15T09:25:40.652Z,9.247143
2023-04-15T09:26:40.730Z,9.247170
2023-04-15T09:27:40.736Z,9.247112
2023-04-15T09:28:40.630Z,9.247141
2023-04-15T09:29:40.698Z,9.247128
2023-04-15T09:30:40.761Z,9.247099
2023-04-15T09:31:40.656Z,9.247153
2023-04-15T09:32:40.726Z,9.246979
2023-04-15T09:33:40.588Z,9.247004
2023-04-15T09:34:40.601Z,9.247059
2023-04-15T09:35:40.605Z,9.247057
2023-04-15T09:36:40.601Z,9.247040
2023-04-15T09:37:40.586Z,9.247005
2023-04-15T09:38:40.575Z,9.246978
2023-04-15T09:39:41.565Z,9.247027
2023-04-15T09:40:40.549Z,9.247029
2023-04-15T09:41:40.603Z,9.247000
2023-04-15T09:42:40.543Z,9.247072
2023-04-15T09:43:40.613Z,9.247018
2023-04-15T09:44:40.530Z,9.247105
2023-04-15T09:45:40.512Z,9.247072
2023-04-15T09:46:40.954Z,9.247182
2023-04-15T09:47:40.554Z,9.247044
2023-04-15T09:48:40.498Z,9.247002
2023-04-15T09:49:40.510Z,9.247079
2023-04-15T09:50:40.498Z,9.247074
2023-04-15T09:51:41.278Z,9.247101
2023-04-15T09:52:40.500Z,9.247114
2023-04-15T09:53:40.453Z,9.247090
2023-04-15T09:54:40.456Z,9.247085
2023-04-15T09:55:40.475Z,9.246938
2023-04-15T09:56:40.448Z,9.247017
2023-04-15T09:57:40.482Z,9.247045
2023-04-15T09:58:40.451Z,9.247039
2023-04-15T09:59:40.444Z,9.247084
2023-04-15T10:00:40.509Z,9.247088
2023-04-15T10:01:40.492Z,9.247069
2023-04-15T10:02:40.531Z,9.247071
2023-04-15T10:03:40.459Z,9.247099
2023-04-15T10:04:40.393Z,9.247082
2023-04-15T10:05:40.378Z,9.247128
2023-04-15T10:06:41.355Z,9.247138
2023-04-15T10:07:40.376Z,9.247103
2023-04-15T10:08:40.340Z,9.247080
2023-04-15T10:09:40.346Z,9.247082
2023-04-15T10:10:40.338Z,9.247074
2023-04-15T10:11:40.317Z,9.247144
2023-04-15T10:12:41.137Z,9.247083
2023-04-15T10:13:40.321Z,9.247059
2023-04-15T10:14:40.316Z,9.246981
2023-04-15T10:15:40.354Z,9.247005
2023-04-15T10:16:40.315Z,9.247084
2023-04-15T10:17:41.691Z,9.247001
2023-04-15T10:18:40.287Z,9.247025
2023-04-15T10:19:40.272Z,9.247104
2023-04-15T10:20:40.248Z,9.247136
2023-04-15T10:21:40.250Z,9.247222
2023-04-15T10:22:40.254Z,9.247102
2023-04-15T10:23:40.227Z,9.247150
2023-04-15T10:24:40.238Z,9.247065
2023-04-15T10:25:40.213Z,9.247083
2023-04-15T10:26:40.261Z,9.247139
2023-04-15T10:27:40.269Z,9.247159
2023-04-15T10:28:40.189Z,9.247178
2023-04-15T10:29:40.204Z,9.247074
2023-04-15T10:30:40.172Z,9.247069
2023-04-15T10:31:40.209Z,9.247090
2023-04-15T10:32:40.257Z,9.247087
2023-04-15T10:33:40.168Z,9.247131
2023-04-15T10:34:40.168Z,9.247075
2023-04-15T10:35:40.151Z,9.247138
2023-04-15T10:36:40.163Z,9.247111
2023-04-15T10:37:40.170Z,9.247108
2023-04-15T10:38:40.121Z,9.247070
2023-04-15T10:39:40.131Z,9.247083
2023-04-15T10:40:40.254Z,9.247075
2023-04-15T10:41:40.153Z,9.247089
2023-04-15T10:42:40.141Z,9.247075
2023-04-15T10:43:40.099Z,9.247107
2023-04-15T10:44:40.096Z,9.247081
2023-04-15T10:45:40.216Z,9.247105
2023-04-15T10:46:41.051Z,9.247079
2023-04-15T10:47:40.131Z,9.247077
2023-04-15T10:48:40.695Z,9.247084
2023-04-15T10:49:40.053Z,9.247087
2023-04-15T10:50:40.058Z,9.247058
2023-04-15T10:51:41.274Z,9.247093
2023-04-15T10:52:40.029Z,9.247055
2023-04-15T10:53:40.025Z,9.247100
2023-04-15T10:54:40.057Z,9.247137
2023-04-15T10:55:40.035Z,9.247094
2023-04-15T10:56:39.995Z,9.247076
2023-04-15T10:57:40.060Z,9.247079
2023-04-15T10:58:39.979Z,9.247107
2023-04-15T10:59:39.963Z,9.247090
2023-04-15T11:00:40.001Z,9.247097
2023-04-15T11:01:40.024Z,9.247076
2023-04-15T11:02:40.112Z,9.247090
2023-04-15T11:03:40.229Z,9.247108
2023-04-15T11:04:42.593Z,9.247102
2023-04-15T11:05:40.969Z,9.247098
2023-04-15T11:06:39.949Z,9.247106
2023-04-15T11:07:39.902Z,9.247123
2023-04-15T11:08:39.965Z,9.247149
2023-04-15T11:09:39.896Z,9.247088
2023-04-15T11:10:39.884Z,9.247078
2023-04-15T11:11:39.890Z,9.247092
2023-04-15T11:12:39.883Z,9.247087
2023-04-15T11:13:39.870Z,9.247104
2023-04-15T11:14:39.875Z,9.247116
2023-04-15T11:15:39.844Z,9.247093
2023-04-15T11:16:39.865Z,9.247106
2023-04-15T11:17:39.863Z,9.247108
2023-04-15T11:18:39.839Z,9.247102
2023-04-15T11:19:39.844Z,9.247059
2023-04-15T11:20:39.869Z,9.247068
2023-04-15T11:21:39.814Z,9.247090
2023-04-15T11:22:39.812Z,9.247101
2023-04-15T11:23:39.936Z,9.247101
2023-04-15T11:24:40.638Z,9.247075
2023-04-15T11:25:40.078Z,9.247072
2023-04-15T11:26:40.129Z,9.247129
2023-04-15T11:27:39.778Z,9.247109
2023-04-15T11:28:40.622Z,9.247059
2023-04-15T11:29:40.617Z,9.247033
2023-04-15T11:30:40.659Z,9.247103
2023-04-15T11:31:39.790Z,9.247059
2023-04-15T11:32:41.184Z,9.247059
2023-04-15T11:33:39.765Z,9.247108
2023-04-15T11:34:39.747Z,9.247069
2023-04-15T11:35:39.805Z,9.247076
2023-04-15T11:36:39.715Z,9.247134
2023-04-15T11:37:40.611Z,9.247096
2023-04-15T11:38:39.702Z,9.247101
2023-04-15T11:39:39.691Z,9.247048
2023-04-15T11:40:39.783Z,9.247116
2023-04-15T11:41:39.667Z,9.247098
2023-04-15T11:42:49.428Z,9.247072
2023-04-15T11:43:41.692Z,9.247127
2023-04-15T11:44:39.638Z,9.247069
2023-04-15T11:45:39.716Z,9.247039
2023-04-15T11:46:39.640Z,9.247094
2023-04-15T11:47:39.656Z,9.247146
2023-04-15T11:48:39.651Z,9.247108
2023-04-15T11:49:39.797Z,9.247199
2023-04-15T11:50:39.608Z,9.247236
2023-04-15T11:51:39.600Z,9.247227
2023-04-15T11:52:39.587Z,9.247100
2023-04-15T11:53:39.593Z,9.247083
2023-04-15T11:54:39.591Z,9.247064
2023-04-15T11:55:39.589Z,9.247063
2023-04-15T11:56:39.546Z,9.247080
2023-04-15T11:57:39.549Z,9.247148
2023-04-15T11:58:40.153Z,9.247050
2023-04-15T12:00:40.516Z,9.247011
2023-04-15T12:01:39.535Z,9.246999
2023-04-15T12:02:39.592Z,9.246990
2023-04-15T12:03:39.606Z,9.247047
2023-04-15T12:04:39.647Z,9.247190
2023-04-15T12:05:39.489Z,9.247150
2023-04-15T12:06:39.519Z,9.247125
2023-04-15T12:07:39.486Z,9.247061
2023-04-15T12:08:39.479Z,9.247099
2023-04-15T12:09:39.473Z,9.247054
2023-04-15T12:10:39.483Z,9.247109
2023-04-15T12:11:39.468Z,9.247175
2023-04-15T12:12:39.476Z,9.247135
2023-04-15T12:13:39.466Z,9.247119
2023-04-15T12:14:40.180Z,9.247075
2023-04-15T12:15:39.499Z,9.247089
2023-04-15T12:16:49.149Z,9.247033
2023-04-15T12:17:51.379Z,9.247059
2023-04-15T12:18:41.417Z,9.246982
2023-04-15T12:19:39.646Z,9.247075